This is the latest recevied weather packets stored in our database for station/object K7SKM. If no packets are shown the sender has not sent any weather packets the latest 10 day(s).
| Time | Temp. | Humidity | Pressure | Rain* | Wind** | Luminosity | Snow |
|---|---|---|---|---|---|---|---|
| 1777915834 | 22.78° C | 47% | 1015.6 hPa | 0 mm | - | 334 W/m² | - |
| 1777915530 | 23.89° C | 46% | 1015.6 hPa | 0 mm | - | 332 W/m² | - |
| 1777915227 | 24.44° C | 45% | 1015.6 hPa | 0 mm | - | 327 W/m² | - |
| 1777914924 | 23.89° C | 45% | 1015.8 hPa | 0 mm | - | 317 W/m² | - |
| 1777914621 | 24.44° C | 45% | 1015.6 hPa | 0 mm | - | 314 W/m² | - |
| 1777914316 | 23.89° C | 45% | 1015.6 hPa | 0 mm | - | 311 W/m² | - |
| 1777914015 | 22.78° C | 48% | 1015.6 hPa | 0 mm | - | 306 W/m² | - |
| 1777913710 | 23.33° C | 47% | 1015.6 hPa | 0 mm | - | 292 W/m² | - |
| 1777913407 | 22.22° C | 49% | 1015.8 hPa | 0 mm | - | 283 W/m² | - |
| 1777913103 | 23.33° C | 47% | 1015.6 hPa | 0 mm | - | 281 W/m² | - |
| 1777912800 | 22.78° C | 48% | 1015.4 hPa | 0 mm | - | 277 W/m² | - |
| 1777912495 | 22.22° C | 51% | 1015.4 hPa | 0 mm | - | 272 W/m² | - |
| 1777912193 | 21.11° C | 52% | 1015.6 hPa | 0 mm | - | 265 W/m² | - |
| 1777911889 | 21.67° C | 51% | 1015.5 hPa | 0 mm | - | 258 W/m² | - |
| 1777911585 | 21.11° C | 52% | 1015.6 hPa | 0 mm | - | 255 W/m² | - |
| 1777911281 | 21.11° C | 52% | 1015.4 hPa | 0 mm | - | 248 W/m² | - |
| 1777910978 | 21.11° C | 56% | 1015.5 hPa | 0 mm | - | 239 W/m² | - |
| 1777910677 | 20° C | 57% | 1015.5 hPa | 0 mm | - | 232 W/m² | - |
| 1777910372 | 19.44° C | 58% | 1015.6 hPa | 0 mm | - | 226 W/m² | - |
| 1777910069 | 18.89° C | 61% | 1015.5 hPa | 0 mm | - | 218 W/m² | - |
| 1777909767 | 17.22° C | 64% | 1015.4 hPa | 0 mm | - | 209 W/m² | - |
| 1777909463 | 16.11° C | 67% | 1015.3 hPa | 0 mm | - | 197 W/m² | - |
| 1777909161 | 16.11° C | 69% | 1015.3 hPa | 0 mm | - | 64 W/m² | - |
| 1777908859 | 15.56° C | 69% | 1015.4 hPa | 0 mm | - | 42 W/m² | - |
| 1777908556 | 15° C | 69% | 1015.3 hPa | 0 mm | - | 39 W/m² | - |
* Rain latest hour (hover to see other rain measurements)
** Current wind speed in m/s (hover to see current wind gust speed)